createdAt,value
2019-03-28T00:01:40.688Z,13.60
2019-03-28T00:04:13.012Z,14.67
2019-03-28T00:06:44.843Z,12.60
2019-03-28T00:09:16.807Z,12.70
2019-03-28T00:11:49.174Z,18.20
2019-03-28T00:14:21.664Z,15.97
2019-03-28T00:16:53.373Z,16.90
2019-03-28T00:19:25.312Z,12.10
2019-03-28T00:21:56.986Z,14.77
2019-03-28T00:24:48.463Z,12.87
2019-03-28T00:27:20.155Z,14.97
2019-03-28T00:29:52.593Z,17.63
2019-03-28T00:32:24.325Z,15.43
2019-03-28T00:34:56.694Z,13.50
2019-03-28T00:37:28.436Z,15.90
2019-03-28T00:40:02.910Z,13.63
2019-03-28T00:42:35.288Z,18.90
2019-03-28T00:45:10.864Z,13.37
2019-03-28T00:47:42.982Z,16.80
2019-03-28T00:50:15.069Z,13.37
2019-03-28T00:52:46.840Z,16.40
2019-03-28T00:55:19.068Z,12.60
2019-03-28T00:57:50.732Z,15.43
2019-03-28T01:00:23.027Z,16.80
2019-03-28T01:02:55.375Z,13.60
2019-03-28T01:05:32.646Z,19.90
2019-03-28T01:08:04.540Z,14.30
2019-03-28T01:10:36.820Z,15.73
2019-03-28T01:13:08.489Z,15.07
2019-03-28T01:15:51.930Z,12.10
2019-03-28T01:18:23.850Z,16.57
2019-03-28T01:21:06.492Z,15.13
2019-03-28T01:23:38.124Z,14.30
2019-03-28T01:26:21.280Z,13.93
2019-03-28T01:28:59.263Z,16.37
2019-03-28T01:31:32.620Z,14.80
2019-03-28T01:34:04.883Z,14.80
2019-03-28T01:36:37.217Z,18.37
2019-03-28T01:39:20.628Z,15.70
2019-03-28T01:41:52.402Z,15.80
2019-03-28T01:44:24.194Z,24.27
2019-03-28T01:46:56.142Z,16.83
2019-03-28T01:49:27.977Z,13.77
2019-03-28T01:52:00.162Z,16.60
2019-03-28T01:54:32.000Z,16.53
2019-03-28T01:57:10.877Z,15.67
2019-03-28T01:59:37.504Z,19.90
2019-03-28T02:02:09.696Z,18.80
2019-03-28T02:04:41.587Z,18.90
2019-03-28T02:07:13.680Z,18.60
2019-03-28T02:09:45.436Z,17.87
2019-03-28T02:12:18.426Z,18.67
2019-03-28T02:14:50.277Z,18.00
2019-03-28T02:17:22.573Z,18.77
2019-03-28T02:19:54.419Z,17.60
2019-03-28T02:22:26.575Z,19.30
2019-03-28T02:24:58.435Z,21.33
2019-03-28T02:27:30.452Z,20.00
2019-03-28T02:30:02.461Z,20.73
2019-03-28T02:32:35.488Z,17.80
2019-03-28T02:35:07.748Z,21.90
2019-03-28T02:37:40.114Z,19.60
2019-03-28T02:40:12.130Z,17.87
2019-03-28T02:42:44.248Z,19.23
2019-03-28T02:45:15.954Z,24.43
2019-03-28T02:47:48.069Z,23.33
2019-03-28T02:50:20.098Z,17.17
2019-03-28T02:52:52.414Z,18.97
2019-03-28T02:55:24.135Z,21.47
2019-03-28T02:57:55.964Z,20.40
2019-03-28T03:00:27.778Z,18.90
2019-03-28T03:02:59.692Z,19.37
2019-03-28T03:05:31.620Z,24.17
2019-03-28T03:08:03.590Z,20.40
2019-03-28T03:10:35.365Z,20.70
2019-03-28T03:13:07.686Z,19.63
2019-03-28T03:15:39.697Z,17.33
2019-03-28T03:18:11.746Z,26.73
2019-03-28T03:20:43.876Z,19.57
2019-03-28T03:23:16.301Z,29.30
2019-03-28T03:25:48.408Z,26.33
2019-03-28T03:28:20.673Z,19.13
2019-03-28T03:30:52.543Z,21.10
2019-03-28T03:33:24.769Z,20.80
2019-03-28T03:35:56.706Z,30.80
2019-03-28T03:38:29.505Z,24.00
2019-03-28T03:41:01.300Z,25.57
2019-03-28T03:43:44.358Z,26.40
2019-03-28T03:46:16.198Z,26.57
2019-03-28T03:48:48.533Z,32.60
2019-03-28T03:51:20.455Z,26.23
2019-03-28T03:53:52.720Z,30.53
2019-03-28T03:56:24.796Z,33.90
2019-03-28T03:58:56.997Z,31.13
2019-03-28T04:01:28.844Z,23.17
2019-03-28T04:04:05.278Z,23.90
2019-03-28T04:06:37.252Z,29.80
2019-03-28T04:09:09.385Z,31.23
2019-03-28T04:11:41.072Z,33.03
2019-03-28T04:14:13.730Z,27.70
2019-03-28T04:16:45.940Z,35.30
2019-03-28T04:19:18.441Z,32.63
2019-03-28T04:21:50.107Z,33.10
2019-03-28T04:24:33.109Z,27.50
2019-03-28T04:27:05.272Z,25.30
2019-03-28T04:29:37.517Z,28.70
2019-03-28T04:32:09.406Z,30.50
2019-03-28T04:34:41.416Z,28.50
2019-03-28T04:37:14.066Z,30.83
2019-03-28T04:39:47.813Z,27.20
2019-03-28T04:42:19.596Z,26.63
2019-03-28T04:44:51.603Z,29.07
2019-03-28T04:47:23.564Z,34.93
2019-03-28T04:49:55.747Z,26.17
2019-03-28T04:52:27.692Z,32.00
2019-03-28T04:54:59.880Z,31.33
2019-03-28T04:57:31.798Z,30.83
2019-03-28T05:00:04.005Z,28.13
2019-03-28T05:02:36.308Z,26.90
2019-03-28T05:05:08.821Z,31.70
2019-03-28T05:07:40.686Z,26.70
2019-03-28T05:10:13.158Z,25.53
2019-03-28T05:12:45.096Z,32.33
2019-03-28T05:15:20.238Z,28.67
2019-03-28T05:17:50.995Z,26.30
2019-03-28T05:20:22.896Z,26.83
2019-03-28T05:22:54.529Z,30.00
2019-03-28T05:25:26.948Z,29.73
2019-03-28T05:27:59.381Z,30.13
2019-03-28T05:30:31.868Z,31.63
2019-03-28T05:33:03.926Z,25.57
2019-03-28T05:35:35.753Z,29.03
2019-03-28T05:38:08.016Z,31.80
2019-03-28T05:40:40.133Z,29.07
2019-03-28T05:43:12.433Z,31.57
2019-03-28T05:45:47.512Z,32.00
2019-03-28T05:48:18.780Z,27.93
2019-03-28T05:50:50.976Z,28.47
2019-03-28T05:53:23.082Z,36.30
2019-03-28T05:55:55.214Z,26.47
2019-03-28T05:58:27.803Z,26.90
2019-03-28T06:01:00.248Z,34.17
2019-03-28T06:03:32.513Z,24.43
2019-03-28T06:06:04.732Z,26.10
2019-03-28T06:08:36.390Z,28.20
2019-03-28T06:11:08.621Z,32.13
2019-03-28T06:13:40.664Z,36.07
2019-03-28T06:16:12.854Z,29.80
2019-03-28T06:18:44.971Z,34.87
2019-03-28T06:21:17.389Z,31.10
2019-03-28T06:23:49.219Z,30.97
2019-03-28T06:26:21.317Z,29.37
2019-03-28T06:28:53.434Z,32.30
2019-03-28T06:31:25.556Z,33.60
2019-03-28T06:33:57.520Z,25.70
2019-03-28T06:36:29.684Z,31.27
2019-03-28T06:39:01.596Z,27.30
2019-03-28T06:41:34.126Z,26.97
2019-03-28T06:44:05.918Z,27.57
2019-03-28T06:46:37.754Z,32.97
2019-03-28T06:49:10.118Z,26.00
2019-03-28T06:51:42.202Z,29.37
2019-03-28T06:54:14.704Z,29.53
2019-03-28T06:56:47.023Z,33.80
2019-03-28T06:59:19.116Z,28.57
2019-03-28T07:01:52.041Z,23.87
2019-03-28T07:04:24.230Z,28.83
2019-03-28T07:06:57.288Z,26.10
2019-03-28T07:09:29.238Z,30.00
2019-03-28T07:12:01.205Z,30.60
2019-03-28T07:14:34.044Z,27.97
2019-03-28T07:17:06.232Z,30.50
2019-03-28T07:19:38.042Z,31.13
2019-03-28T07:22:10.379Z,28.57
2019-03-28T07:24:42.686Z,27.20
2019-03-28T07:27:14.804Z,29.90
2019-03-28T07:30:05.984Z,28.57
2019-03-28T07:32:39.436Z,30.80
2019-03-28T07:35:11.199Z,26.87
2019-03-28T07:37:43.451Z,25.90
2019-03-28T07:40:16.745Z,30.20
2019-03-28T07:42:48.950Z,27.00
2019-03-28T07:45:24.659Z,32.13
2019-03-28T07:48:08.422Z,24.23
2019-03-28T07:50:42.544Z,28.80
2019-03-28T07:53:14.397Z,28.20
2019-03-28T07:55:46.751Z,33.53
2019-03-28T07:58:18.927Z,28.30
2019-03-28T08:00:51.152Z,25.73
2019-03-28T08:03:23.363Z,30.30
2019-03-28T08:05:56.063Z,26.67
2019-03-28T08:08:38.395Z,28.30
2019-03-28T08:11:01.667Z,25.60
2019-03-28T08:13:34.648Z,25.83
2019-03-28T08:16:06.833Z,26.23
2019-03-28T08:18:38.844Z,32.10
2019-03-28T08:21:11.265Z,27.33
2019-03-28T08:23:43.481Z,25.10
2019-03-28T08:26:15.860Z,32.73
2019-03-28T08:28:48.262Z,24.97
2019-03-28T08:31:20.384Z,23.63
2019-03-28T08:33:52.635Z,22.50
2019-03-28T08:36:25.010Z,25.23
2019-03-28T08:38:58.044Z,24.37
2019-03-28T08:41:31.546Z,22.40
2019-03-28T08:44:07.109Z,27.93
2019-03-28T08:46:37.692Z,23.50
2019-03-28T08:49:09.999Z,21.30
2019-03-28T08:51:43.199Z,22.13
2019-03-28T08:54:15.343Z,20.30
2019-03-28T08:56:47.550Z,23.50
2019-03-28T08:59:19.784Z,20.30
2019-03-28T09:01:51.646Z,22.20
2019-03-28T09:04:24.004Z,18.70
2019-03-28T09:06:56.078Z,22.60
2019-03-28T09:09:28.470Z,20.00
2019-03-28T09:12:00.572Z,26.13
2019-03-28T09:14:32.688Z,20.97
2019-03-28T09:17:04.669Z,27.07
2019-03-28T09:19:38.978Z,22.03
2019-03-28T09:22:10.906Z,19.10
2019-03-28T09:24:42.916Z,22.77
2019-03-28T09:27:14.888Z,19.60
2019-03-28T09:29:47.040Z,19.67
2019-03-28T09:32:19.240Z,21.97
2019-03-28T09:34:51.832Z,16.77
2019-03-28T09:37:23.816Z,21.83
2019-03-28T09:39:56.248Z,16.10
2019-03-28T09:42:28.812Z,16.47
2019-03-28T09:45:00.968Z,17.93
2019-03-28T09:47:34.186Z,19.87
2019-03-28T09:50:09.874Z,22.13
2019-03-28T09:52:42.526Z,16.50
2019-03-28T09:55:33.114Z,19.43
2019-03-28T09:58:05.292Z,19.10
2019-03-28T10:00:37.740Z,18.83
2019-03-28T10:03:09.790Z,15.50
2019-03-28T10:05:41.866Z,21.70
2019-03-28T10:08:13.879Z,13.20
2019-03-28T10:10:48.591Z,12.23
2019-03-28T10:13:19.424Z,13.70
2019-03-28T10:15:51.573Z,14.17
2019-03-28T10:18:23.615Z,11.90
2019-03-28T10:20:55.602Z,11.33
2019-03-28T10:23:27.498Z,11.80
2019-03-28T10:25:59.629Z,17.50
2019-03-28T10:28:31.765Z,10.27
2019-03-28T10:31:15.921Z,16.60
2019-03-28T10:33:37.980Z,8.83
2019-03-28T10:36:10.254Z,8.57
2019-03-28T10:38:42.161Z,9.00
2019-03-28T10:41:14.526Z,12.70
2019-03-28T10:43:46.622Z,9.90
2019-03-28T10:46:18.634Z,10.47
2019-03-28T10:48:50.851Z,10.80
2019-03-28T10:51:25.034Z,9.80
2019-03-28T10:53:57.044Z,11.53
2019-03-28T10:56:29.037Z,7.57
2019-03-28T10:59:01.214Z,9.80
2019-03-28T11:01:48.050Z,8.97
2019-03-28T11:04:06.968Z,7.37
2019-03-28T11:06:39.253Z,9.00
2019-03-28T11:09:11.184Z,8.23
2019-03-28T11:11:43.993Z,8.00
2019-03-28T11:14:17.050Z,14.50
2019-03-28T11:16:49.482Z,10.87
2019-03-28T11:19:21.696Z,11.53
2019-03-28T11:21:53.902Z,7.30
2019-03-28T11:24:25.968Z,12.13
2019-03-28T11:26:58.250Z,9.97
2019-03-28T11:29:29.946Z,10.00
2019-03-28T11:32:02.110Z,8.43
2019-03-28T11:34:34.258Z,8.73
2019-03-28T11:37:09.752Z,8.40
2019-03-28T11:39:40.106Z,12.83
2019-03-28T11:42:12.521Z,9.40
2019-03-28T11:44:44.377Z,7.63
2019-03-28T11:47:16.404Z,12.03
2019-03-28T11:49:48.209Z,6.37
2019-03-28T11:52:20.532Z,8.67
2019-03-28T11:54:52.673Z,6.47
2019-03-28T11:57:24.778Z,9.47
2019-03-28T11:59:58.076Z,6.17
2019-03-28T12:02:30.463Z,7.57
2019-03-28T12:05:13.016Z,8.23
2019-03-28T12:07:46.259Z,6.33
2019-03-28T12:10:18.791Z,7.43
2019-03-28T12:12:50.589Z,16.40
2019-03-28T12:15:23.397Z,5.27
2019-03-28T12:17:55.442Z,6.10
2019-03-28T12:20:27.107Z,5.90
2019-03-28T12:22:58.972Z,4.40
2019-03-28T12:25:30.867Z,7.10
2019-03-28T12:28:03.324Z,6.83
2019-03-28T12:30:35.084Z,5.27
2019-03-28T12:33:07.296Z,7.60
2019-03-28T12:35:39.479Z,10.13
2019-03-28T12:38:11.664Z,7.37
2019-03-28T12:40:43.755Z,6.03
2019-03-28T12:43:15.996Z,7.60
2019-03-28T12:45:48.232Z,5.10
2019-03-28T12:48:21.360Z,6.27
2019-03-28T12:50:58.821Z,5.00
2019-03-28T12:53:27.331Z,4.70
2019-03-28T12:55:59.481Z,4.57
2019-03-28T12:58:31.362Z,6.20
2019-03-28T13:01:04.610Z,12.30
2019-03-28T13:03:45.326Z,5.97
2019-03-28T13:06:21.675Z,5.27
2019-03-28T13:08:53.964Z,7.70
2019-03-28T13:11:26.948Z,5.27
2019-03-28T13:13:58.918Z,6.23
2019-03-28T13:16:32.296Z,4.40
2019-03-28T13:19:04.483Z,4.13
2019-03-28T13:21:36.662Z,4.30
2019-03-28T13:24:08.851Z,5.73
2019-03-28T13:26:41.136Z,6.37
2019-03-28T13:29:13.305Z,7.03
2019-03-28T13:31:45.250Z,4.00
2019-03-28T13:34:17.392Z,4.10
2019-03-28T13:36:49.068Z,4.33
2019-03-28T13:39:21.112Z,3.63
2019-03-28T13:41:53.262Z,5.93
2019-03-28T13:44:25.271Z,4.03
2019-03-28T13:46:58.483Z,3.30
2019-03-28T13:49:30.817Z,6.13
2019-03-28T13:52:02.589Z,3.73
2019-03-28T13:54:35.259Z,5.13
2019-03-28T13:57:07.300Z,4.60
2019-03-28T13:59:39.383Z,3.83
2019-03-28T14:02:11.294Z,3.53
2019-03-28T14:04:44.663Z,4.87
2019-03-28T14:07:17.446Z,4.00
2019-03-28T14:09:50.949Z,3.60
2019-03-28T14:12:23.434Z,4.07
2019-03-28T14:14:55.471Z,4.33
2019-03-28T14:17:27.139Z,5.87
2019-03-28T14:19:59.305Z,7.33
2019-03-28T14:22:31.178Z,4.40
2019-03-28T14:25:02.926Z,3.60
2019-03-28T14:27:34.813Z,3.23
2019-03-28T14:30:09.640Z,4.60
2019-03-28T14:32:52.665Z,3.70
2019-03-28T14:35:15.787Z,8.40
2019-03-28T14:37:47.369Z,4.67
2019-03-28T14:40:19.311Z,5.40
2019-03-28T14:42:51.205Z,4.83
2019-03-28T14:45:23.559Z,4.30
2019-03-28T14:47:55.513Z,3.63
2019-03-28T14:50:38.706Z,3.90
2019-03-28T14:53:10.938Z,9.70
2019-03-28T14:55:43.073Z,4.17
2019-03-28T14:58:15.135Z,4.53
2019-03-28T15:00:51.953Z,4.40
2019-03-28T15:03:26.934Z,6.53
2019-03-28T15:05:58.543Z,5.30
2019-03-28T15:08:30.775Z,8.23
2019-03-28T15:11:03.163Z,6.60
2019-03-28T15:13:35.131Z,11.53
2019-03-28T15:16:07.391Z,4.43
2019-03-28T15:18:50.329Z,9.70
2019-03-28T15:21:23.009Z,7.60
2019-03-28T15:23:54.728Z,4.60
2019-03-28T15:26:30.157Z,6.00
2019-03-28T15:29:01.907Z,8.70
2019-03-28T15:31:34.322Z,7.23
2019-03-28T15:34:06.325Z,4.43
2019-03-28T15:36:41.782Z,7.80
2019-03-28T15:39:12.026Z,4.33
2019-03-28T15:41:44.857Z,6.00
2019-03-28T15:44:17.155Z,6.67
2019-03-28T15:46:49.503Z,9.00
2019-03-28T15:49:21.545Z,4.33
2019-03-28T15:51:53.739Z,4.87
2019-03-28T15:54:25.749Z,3.97
2019-03-28T15:56:58.703Z,5.60
2019-03-28T15:59:30.874Z,5.83
2019-03-28T16:02:02.923Z,6.00
2019-03-28T16:04:36.697Z,4.53
2019-03-28T16:07:14.841Z,6.67
2019-03-28T16:09:46.964Z,6.00
2019-03-28T16:12:19.051Z,5.70
2019-03-28T16:14:50.797Z,4.10
2019-03-28T16:17:22.997Z,4.33
2019-03-28T16:19:54.671Z,3.80
2019-03-28T16:22:37.835Z,4.60
2019-03-28T16:25:10.942Z,4.53
2019-03-28T16:27:43.663Z,4.50
2019-03-28T16:30:16.348Z,5.17
2019-03-28T16:32:48.468Z,4.47
2019-03-28T16:35:21.354Z,5.63
2019-03-28T16:37:54.280Z,8.90
2019-03-28T16:40:26.494Z,4.27
2019-03-28T16:42:58.320Z,4.57
2019-03-28T16:45:30.933Z,3.57
2019-03-28T16:48:05.120Z,4.63
2019-03-28T16:50:37.534Z,6.90
2019-03-28T16:53:45.487Z,5.70
2019-03-28T16:56:17.331Z,6.27
2019-03-28T16:59:08.363Z,4.30
2019-03-28T17:01:43.043Z,4.00
2019-03-28T17:07:51.660Z,4.30
2019-03-28T17:13:49.878Z,6.70
2019-03-28T17:16:22.092Z,6.30
2019-03-28T17:18:54.377Z,4.70
2019-03-28T17:24:34.576Z,7.33
2019-03-28T17:27:06.677Z,8.23
2019-03-28T17:33:17.776Z,7.90
2019-03-28T17:35:49.779Z,8.00
2019-03-28T17:38:21.918Z,10.20
2019-03-28T17:44:25.506Z,12.60
2019-03-28T17:46:57.598Z,10.03
2019-03-28T17:52:46.683Z,10.10
2019-03-28T17:55:26.391Z,12.97
2019-03-28T17:57:59.414Z,11.60
2019-03-28T18:00:31.156Z,14.73
2019-03-28T18:03:08.979Z,12.30
2019-03-28T18:05:57.167Z,10.83
2019-03-28T18:08:20.446Z,20.93
2019-03-28T18:14:56.796Z,14.40
2019-03-28T18:20:58.603Z,13.57
2019-03-28T18:23:30.241Z,15.27
2019-03-28T18:33:04.096Z,12.00
2019-03-28T18:35:36.326Z,22.57
2019-03-28T18:42:05.228Z,12.70
2019-03-28T18:44:54.952Z,12.30
2019-03-28T18:50:51.263Z,11.37
2019-03-28T18:53:23.129Z,12.30
2019-03-28T18:56:06.439Z,12.27
2019-03-28T18:58:55.213Z,13.30
2019-03-28T19:01:38.051Z,11.97
2019-03-28T19:04:40.183Z,11.17
2019-03-28T19:07:28.982Z,12.97
2019-03-28T19:10:00.609Z,17.20
2019-03-28T19:16:33.511Z,13.93
2019-03-28T19:19:22.450Z,11.13
2019-03-28T19:21:57.609Z,10.73
2019-03-28T19:24:56.888Z,13.30
2019-03-28T19:30:59.161Z,9.83
2019-03-28T19:33:30.922Z,11.60
2019-03-28T19:36:04.633Z,15.60
2019-03-28T19:42:22.487Z,16.53
2019-03-28T19:48:22.058Z,12.97
2019-03-28T19:50:53.877Z,10.57
2019-03-28T19:53:26.117Z,11.80
2019-03-28T19:55:57.731Z,15.73
2019-03-28T19:58:30.900Z,11.97
2019-03-28T20:01:03.023Z,12.97
2019-03-28T20:03:35.112Z,12.43
2019-03-28T20:06:06.960Z,10.90
2019-03-28T20:08:58.266Z,12.87
2019-03-28T20:11:29.997Z,11.77
2019-03-28T20:14:01.915Z,13.33
2019-03-28T20:16:33.880Z,11.00
2019-03-28T20:19:06.143Z,10.93
2019-03-28T20:21:38.463Z,11.37
2019-03-28T20:24:10.421Z,11.17
2019-03-28T20:26:42.725Z,9.80
2019-03-28T20:29:14.721Z,11.93
2019-03-28T20:31:46.792Z,10.27
2019-03-28T20:34:18.957Z,12.73
2019-03-28T20:36:53.028Z,15.20
2019-03-28T20:39:25.439Z,10.37
2019-03-28T20:41:57.244Z,9.90
2019-03-28T20:44:29.548Z,10.67
2019-03-28T20:47:04.751Z,10.90
2019-03-28T20:49:36.893Z,15.27
2019-03-28T20:52:09.586Z,11.27
2019-03-28T20:54:41.738Z,10.47
2019-03-28T20:57:13.971Z,13.27
2019-03-28T20:59:46.815Z,11.30
2019-03-28T21:02:18.838Z,16.40
2019-03-28T21:04:50.661Z,12.33
2019-03-28T21:07:23.019Z,11.63
2019-03-28T21:09:55.917Z,14.53
2019-03-28T21:12:28.068Z,10.70
2019-03-28T21:15:00.311Z,10.43
2019-03-28T21:17:33.286Z,10.20
2019-03-28T21:20:06.281Z,9.90
2019-03-28T21:22:38.043Z,12.20
2019-03-28T21:25:10.119Z,14.60
2019-03-28T21:27:41.761Z,11.67
2019-03-28T21:30:13.943Z,10.10
2019-03-28T21:32:55.356Z,10.27
2019-03-28T21:35:19.209Z,13.13
2019-03-28T21:37:50.926Z,14.13
2019-03-28T21:40:23.541Z,12.13
2019-03-28T21:42:55.565Z,12.37
2019-03-28T21:45:27.560Z,12.50
2019-03-28T21:47:59.299Z,16.10
2019-03-28T21:50:31.175Z,11.83
2019-03-28T21:53:02.810Z,12.63
2019-03-28T21:55:34.713Z,10.40
2019-03-28T21:58:06.507Z,14.50
2019-03-28T22:00:40.186Z,12.07
2019-03-28T22:03:12.905Z,14.50
2019-03-28T22:05:45.017Z,12.63
2019-03-28T22:08:16.644Z,12.63
2019-03-28T22:10:48.876Z,14.33
2019-03-28T22:13:21.895Z,12.63
2019-03-28T22:15:54.101Z,12.60
2019-03-28T22:18:25.838Z,16.03
2019-03-28T22:20:58.221Z,12.47
2019-03-28T22:23:29.881Z,12.13
2019-03-28T22:26:02.048Z,12.93
2019-03-28T22:28:33.761Z,11.57
2019-03-28T22:31:05.672Z,11.07
2019-03-28T22:33:37.531Z,13.20
2019-03-28T22:36:09.609Z,11.53
2019-03-28T22:38:41.766Z,13.00
2019-03-28T22:41:14.151Z,15.50
2019-03-28T22:43:45.885Z,13.20
2019-03-28T22:46:17.871Z,10.43
2019-03-28T22:48:49.609Z,11.53
2019-03-28T22:51:21.690Z,12.83
2019-03-28T22:53:53.656Z,13.53
2019-03-28T22:56:25.927Z,13.47
2019-03-28T22:58:57.617Z,13.90
2019-03-28T23:01:30.163Z,21.40
2019-03-28T23:04:01.875Z,16.83
2019-03-28T23:06:33.702Z,14.23
2019-03-28T23:09:06.823Z,12.33
2019-03-28T23:11:40.642Z,14.10
2019-03-28T23:14:12.951Z,15.03
2019-03-28T23:16:44.926Z,19.80
2019-03-28T23:19:16.717Z,14.43
2019-03-28T23:21:48.905Z,17.20
2019-03-28T23:24:20.775Z,16.63
2019-03-28T23:26:52.754Z,18.27
2019-03-28T23:29:24.592Z,14.60
2019-03-28T23:31:57.113Z,17.10
2019-03-28T23:34:29.343Z,19.43
2019-03-28T23:37:01.365Z,16.70
2019-03-28T23:39:33.201Z,15.90
2019-03-28T23:42:05.437Z,18.87
2019-03-28T23:44:37.185Z,20.07
2019-03-28T23:47:09.217Z,15.97
2019-03-28T23:49:40.960Z,17.03
2019-03-28T23:52:13.095Z,17.03
2019-03-28T23:54:44.891Z,19.47
2019-03-28T23:57:16.837Z,19.70
2019-03-28T23:59:48.629Z,17.70
